Time;durP1;ratioP1;P1;durP2;ratioP2;P2;SDS_P1;SDS_P2;PMS_P1;PMS_P2;Temp;Humidity;BMP_temperature;BMP_pressure;BME280_temperature;BME280_humidity;BME280_pressure;Samples;Min_cycle;Max_cycle;Signal;HPM_P1;HPM_P2
2022/01/19 00:01:28;;;;;;;384.50;278.75;;;;;;;23.66;38.91;103038.94;5126349;27;20108;-42
2022/01/19 00:03:57;;;;;;;398.13;290.02;;;;;;;23.66;38.92;103038.94;5126759;27;20034;-42
2022/01/19 00:06:26;;;;;;;384.25;280.25;;;;;;;23.61;38.88;103038.72;5126751;27;20433;-42
2022/01/19 00:08:54;;;;;;;386.85;279.58;;;;;;;23.66;38.64;103055.56;5126646;27;20038;-42
2022/01/19 00:11:23;;;;;;;393.23;285.42;;;;;;;23.65;38.88;103060.72;5126369;27;20030;-42
2022/01/19 00:13:52;;;;;;;382.20;284.65;;;;;;;23.60;39.03;103065.72;5125918;27;20084;-42
2022/01/19 00:16:21;;;;;;;391.52;288.92;;;;;;;23.62;38.95;103073.69;5126173;27;20069;-42
2022/01/19 00:18:50;;;;;;;392.63;285.20;;;;;;;23.55;39.02;103064.63;5126062;27;20042;-44
2022/01/19 00:21:18;;;;;;;390.13;287.60;;;;;;;23.57;38.78;103065.59;5126011;27;20033;-42
2022/01/19 00:27:11;;;;;;;395.55;288.30;;;;;;;23.56;39.05;103042.84;5125300;27;20394;-42
2022/01/19 00:29:39;;;;;;;386.45;289.83;;;;;;;23.61;38.69;103024.72;5126090;27;20050;-42
2022/01/19 00:32:08;;;;;;;396.48;292.80;;;;;;;23.66;38.76;103018.00;5126091;27;20102;-42
2022/01/19 00:34:37;;;;;;;394.13;287.52;;;;;;;23.57;38.94;103017.53;5125865;27;20053;-43
2022/01/19 00:37:05;;;;;;;402.50;296.10;;;;;;;23.52;38.94;103007.72;5125228;27;20472;-42
2022/01/19 00:39:34;;;;;;;401.13;295.65;;;;;;;23.52;39.20;103006.84;5125228;27;20387;-43
2022/01/19 00:42:02;;;;;;;404.77;296.67;;;;;;;23.55;39.41;103003.47;5125434;27;20034;-42
2022/01/19 00:44:31;;;;;;;398.10;295.98;;;;;;;23.57;39.05;102991.34;5107935;27;20054;-42
2022/01/19 00:46:59;;;;;;;406.52;292.38;;;;;;;23.56;39.09;102989.53;5125165;27;20030;-42
2022/01/19 00:49:28;;;;;;;407.00;295.15;;;;;;;23.57;38.96;102988.72;5125598;27;20035;-43
2022/01/19 00:51:57;;;;;;;410.73;296.63;;;;;;;23.52;39.26;103001.59;5125544;27;20507;-42
2022/01/19 00:54:25;;;;;;;407.38;296.77;;;;;;;23.50;39.51;102996.28;5124773;27;20035;-42
2022/01/19 00:56:54;;;;;;;406.63;300.92;;;;;;;23.50;39.03;103008.50;5125822;27;20023;-42
2022/01/19 00:59:23;;;;;;;397.45;293.40;;;;;;;23.50;39.21;103011.09;5125688;27;20035;-42
2022/01/19 01:01:51;;;;;;;406.10;296.13;;;;;;;23.50;39.08;103017.22;5107243;27;20055;-42
2022/01/19 01:04:19;;;;;;;395.77;292.27;;;;;;;23.49;39.29;103012.84;5124477;27;20031;-42
2022/01/19 01:06:48;;;;;;;401.40;293.38;;;;;;;23.51;39.28;103007.66;5106810;27;20031;-42
2022/01/19 01:09:17;;;;;;;401.98;292.75;;;;;;;23.52;39.38;103005.09;5125376;27;20409;-43
2022/01/19 01:11:56;;;;;;;404.50;298.05;;;;;;;23.48;39.36;102995.34;5124835;27;20037;-42
2022/01/19 01:20:05;;;;;;;397.08;294.25;;;;;;;23.52;39.34;102984.16;5121016;27;20058;-43
2022/01/19 01:22:33;;;;;;;414.35;305.38;;;;;;;23.54;39.40;102980.72;5125306;27;20031;-43
2022/01/19 01:25:02;;;;;;;394.10;293.10;;;;;;;23.55;39.34;102982.50;5124619;27;20031;-42
2022/01/19 01:27:30;;;;;;;398.55;294.30;;;;;;;23.54;39.08;102981.63;5125342;27;20031;-42
2022/01/19 01:29:59;;;;;;;404.77;306.33;;;;;;;23.48;39.58;102992.72;5124933;27;20045;-42
2022/01/19 01:32:28;;;;;;;409.70;307.90;;;;;;;23.52;39.09;102994.63;5124680;27;20461;-42
2022/01/19 01:34:56;;;;;;;404.48;301.80;;;;;;;23.52;39.12;103005.09;5124681;27;20053;-43
2022/01/19 01:37:23;;;;;;;408.38;300.60;;;;;;;23.51;39.42;103005.03;5124585;27;20031;-42
2022/01/19 01:39:52;;;;;;;408.05;301.23;;;;;;;23.49;39.21;102997.13;5124870;27;20027;-42
2022/01/19 01:42:23;;;;;;;408.38;301.75;;;;;;;23.49;39.51;102991.88;5124935;27;20042;-42
2022/01/19 01:44:53;;;;;;;407.88;299.55;;;;;;;23.44;39.58;102989.84;5124925;27;20079;-42
2022/01/19 01:47:22;;;;;;;409.75;307.05;;;;;;;23.46;39.70;102985.59;5123555;27;20161;-42
2022/01/19 01:55:21;;;;;;;409.98;305.70;;;;;;;23.52;39.35;102975.41;5105340;27;20525;-42
2022/01/19 01:57:49;;;;;;;414.65;307.75;;;;;;;23.44;40.04;102972.44;5106073;27;20038;-41
2022/01/19 02:00:20;;;;;;;407.35;307.98;;;;;;;23.46;39.54;102967.25;5124057;27;20091;-42
2022/01/19 02:02:49;;;;;;;417.70;306.35;;;;;;;23.44;39.29;102961.94;5124488;27;20027;-43
2022/01/19 02:05:21;;;;;;;410.05;304.17;;;;;;;23.45;39.29;102962.84;5124630;27;20023;-42
2022/01/19 02:08:20;;;;;;;411.73;306.13;;;;;;;23.43;39.34;102969.72;5124402;27;20031;-42
2022/01/19 02:16:48;;;;;;;401.50;298.67;;;;;;;23.46;39.37;102956.78;5120148;27;20041;-42
2022/01/19 02:22:11;;;;;;;407.30;309.70;;;;;;;23.38;39.52;102951.19;5116201;28;20043;-43
2022/01/19 02:24:20;;;;;;;420.67;310.30;;;;;;;23.38;39.97;102964.28;5114129;28;20122;-46
2022/01/19 02:29:47;;;;;;;417.25;310.05;;;;;;;23.23;39.61;102926.88;5123772;28;20027;-42
2022/01/19 02:40:33;;;;;;;403.70;303.30;;;;;;;23.43;39.59;102954.00;5112031;28;20384;-43
2022/01/19 02:51:07;;;;;;;401.02;299.65;;;;;;;23.36;39.50;102940.63;5113244;28;20104;-42
2022/01/19 02:53:39;;;;;;;404.02;304.13;;;;;;;23.41;39.84;102935.63;5124037;28;20034;-44
2022/01/19 02:56:12;;;;;;;412.27;304.75;;;;;;;23.39;39.52;102931.13;5123129;28;20035;-43
2022/01/19 02:58:54;;;;;;;415.10;308.38;;;;;;;23.40;39.84;102919.84;5106064;27;20031;-43
2022/01/19 03:09:26;;;;;;;412.52;307.40;;;;;;;23.38;39.54;102914.50;5126919;27;20030;-42
2022/01/19 03:11:55;;;;;;;415.80;308.23;;;;;;;23.40;39.82;102904.13;5127286;27;20038;-46
2022/01/19 03:14:24;;;;;;;414.45;308.25;;;;;;;23.37;39.57;102907.47;5126943;27;20043;-42
2022/01/19 03:16:53;;;;;;;407.92;306.23;;;;;;;23.38;39.46;102895.28;5100368;27;20031;-43
2022/01/19 03:19:21;;;;;;;413.00;309.02;;;;;;;23.40;39.81;102893.66;5127523;27;20031;-42
2022/01/19 03:21:50;;;;;;;418.25;312.23;;;;;;;23.33;39.63;102892.47;5127117;27;20035;-42
2022/01/19 03:24:17;;;;;;;411.77;308.08;;;;;;;23.30;39.86;102894.94;5127060;27;20041;-43
2022/01/19 03:26:46;;;;;;;422.05;313.38;;;;;;;23.31;39.63;102902.84;5127147;27;20149;-43
2022/01/19 03:29:14;;;;;;;412.77;311.08;;;;;;;23.29;39.82;102896.66;5127456;27;20102;-42
2022/01/19 03:31:43;;;;;;;415.30;314.50;;;;;;;23.29;40.01;102899.25;5127385;27;20027;-43
2022/01/19 03:34:12;;;;;;;413.48;309.35;;;;;;;23.31;39.93;102901.97;5126975;27;20464;-45
2022/01/19 03:36:41;;;;;;;425.65;319.88;;;;;;;23.30;39.82;102900.19;5126610;27;20403;-46
2022/01/19 03:39:09;;;;;;;410.15;309.92;;;;;;;23.33;39.88;102906.44;5126690;27;20504;-43
2022/01/19 03:41:38;;;;;;;419.58;314.08;;;;;;;23.28;40.08;102904.44;5127009;27;20084;-43
2022/01/19 03:44:08;;;;;;;427.00;316.58;;;;;;;23.28;40.19;102899.22;5127077;27;20031;-43
2022/01/19 03:46:46;;;;;;;412.63;311.00;;;;;;;23.28;40.17;102899.22;5126868;27;20034;-45
2022/01/19 03:49:23;;;;;;;420.10;308.48;;;;;;;23.30;39.88;102905.41;5127236;27;20096;-42
2022/01/19 03:51:53;;;;;;;404.50;307.58;;;;;;;23.33;40.05;102897.72;5126517;27;20035;-42
2022/01/19 03:54:22;;;;;;;412.02;308.45;;;;;;;23.34;39.79;102899.47;5126848;27;20122;-43
2022/01/19 03:56:51;;;;;;;414.63;308.50;;;;;;;23.29;39.91;102888.78;5126468;27;20035;-43
2022/01/19 03:59:19;;;;;;;419.80;312.20;;;;;;;23.32;39.84;102896.78;5126681;27;20024;-42
2022/01/19 04:01:51;;;;;;;411.38;307.90;;;;;;;23.28;39.92;102893.97;5098376;27;20038;-42
2022/01/19 04:09:19;;;;;;;417.20;309.10;;;;;;;23.25;40.14;102896.44;5126535;27;20113;-42
2022/01/19 04:11:47;;;;;;;414.65;304.58;;;;;;;23.22;39.84;102897.22;5125556;27;20046;-43
2022/01/19 04:14:35;;;;;;;416.08;314.67;;;;;;;23.25;40.11;102899.06;5126067;27;20058;-43
2022/01/19 04:17:06;;;;;;;411.33;309.25;;;;;;;23.27;39.80;102893.06;5110621;27;20027;-43
2022/01/19 04:19:46;;;;;;;428.23;316.70;;;;;;;23.31;40.09;102899.34;5125977;27;20119;-43
2022/01/19 04:22:20;;;;;;;404.42;303.70;;;;;;;23.26;40.15;102904.34;5126141;27;20023;-43
2022/01/19 04:24:49;;;;;;;418.98;312.90;;;;;;;23.28;39.80;102909.69;5125756;27;20047;-42
2022/01/19 04:30:02;;;;;;;430.15;313.75;;;;;;;23.28;39.80;102909.69;5091209;27;20039;-43
2022/01/19 04:32:43;;;;;;;426.10;318.65;;;;;;;23.29;40.04;102911.47;5125857;27;20034;-43
2022/01/19 04:35:13;;;;;;;418.00;310.75;;;;;;;23.24;39.72;102905.13;5126198;27;20459;-42
2022/01/19 04:46:54;;;;;;;410.83;311.17;;;;;;;23.27;39.72;102907.88;5121495;27;20480;-43
2022/01/19 05:05:31;;;;;;;421.85;314.20;;;;;;;23.26;39.81;102913.94;5125755;27;20395;-44
2022/01/19 05:07:37;;;;;;;424.05;316.67;;;;;;;23.19;40.19;102904.88;5118128;27;20043;-43
2022/01/19 05:13:37;;;;;;;420.13;319.30;;;;;;;23.18;40.26;102898.72;5124633;27;20034;-42
2022/01/19 05:15:40;;;;;;;422.70;317.55;;;;;;;23.21;39.93;102898.03;5116333;27;20039;-42
2022/01/19 05:18:09;;;;;;;427.15;318.30;;;;;;;23.16;40.16;102900.41;5125249;27;20034;-42
2022/01/19 05:20:37;;;;;;;423.27;318.83;;;;;;;23.15;40.14;102895.06;5125289;27;20023;-42
2022/01/19 05:23:07;;;;;;;420.30;312.75;;;;;;;23.13;40.39;102905.50;5123761;27;20031;-42
2022/01/19 05:25:35;;;;;;;430.02;318.02;;;;;;;23.14;40.18;102907.28;5124354;27;20438;-42
2022/01/19 05:28:04;;;;;;;421.52;314.42;;;;;;;23.19;40.32;102900.53;5124343;27;20046;-42
2022/01/19 05:30:33;;;;;;;417.33;316.30;;;;;;;23.16;40.18;102910.88;5124444;27;20495;-42
2022/01/19 05:33:01;;;;;;;419.75;316.00;;;;;;;23.16;40.31;102902.09;5090184;27;20143;-43
2022/01/19 05:35:30;;;;;;;426.80;318.70;;;;;;;23.15;40.41;102897.69;5125085;27;20039;-42
2022/01/19 05:37:58;;;;;;;420.70;315.80;;;;;;;23.11;40.14;102893.13;5124412;27;20151;-43
2022/01/19 05:40:27;;;;;;;426.25;316.40;;;;;;;23.15;40.11;102901.22;5123882;27;20074;-43
2022/01/19 05:42:56;;;;;;;413.13;314.30;;;;;;;23.11;40.33;102904.50;5124276;27;20047;-45
2022/01/19 05:45:24;;;;;;;435.02;321.63;;;;;;;23.12;40.52;102910.63;5124585;27;20103;-43
2022/01/19 05:47:53;;;;;;;408.75;312.52;;;;;;;23.11;40.36;102908.84;5124108;27;20095;-43
2022/01/19 05:50:22;;;;;;;421.38;313.55;;;;;;;23.13;40.23;102915.97;5123985;27;21197;-45
2022/01/19 05:52:50;;;;;;;413.58;306.58;;;;;;;23.02;40.26;102890.97;5124748;27;20024;-42
2022/01/19 05:55:19;;;;;;;424.10;317.17;;;;;;;23.13;40.13;102921.19;5124639;27;20544;-43
2022/01/19 05:57:47;;;;;;;415.83;313.48;;;;;;;23.13;40.46;102922.91;5106403;27;20196;-49
2022/01/19 06:00:17;;;;;;;426.65;316.20;;;;;;;23.13;40.14;102921.19;5124287;27;20019;-43
2022/01/19 06:02:45;;;;;;;425.15;321.83;;;;;;;23.14;40.15;102914.22;5124307;27;20368;-43
2022/01/19 06:05:12;;;;;;;421.45;317.40;;;;;;;23.19;40.34;102911.00;5124203;27;20030;-43
2022/01/19 06:07:44;;;;;;;417.95;316.80;;;;;;;23.12;40.32;102902.78;5124261;27;20015;-43
2022/01/19 06:10:42;;;;;;;431.30;320.23;;;;;;;23.14;40.52;102903.75;5106460;27;20056;-44
2022/01/19 06:13:01;;;;;;;421.90;316.88;;;;;;;23.15;40.06;102914.31;5124295;27;20027;-43
2022/01/19 06:15:29;;;;;;;431.02;316.55;;;;;;;23.13;40.15;102915.97;5124707;27;20468;-42
2022/01/19 06:17:58;;;;;;;414.25;312.02;;;;;;;23.10;40.30;102913.19;5124102;27;20035;-42
2022/01/19 06:20:27;;;;;;;422.25;320.63;;;;;;;23.11;40.24;102907.13;5123843;27;20084;-42
2022/01/19 06:22:55;;;;;;;423.17;319.30;;;;;;;23.13;40.34;102895.00;5092350;28;20387;-43
2022/01/19 06:25:24;;;;;;;421.60;319.35;;;;;;;23.12;40.18;102893.22;5124111;28;20871;-42
2022/01/19 06:27:52;;;;;;;436.52;314.58;;;;;;;23.14;40.20;102899.44;5124070;28;20034;-48
2022/01/19 06:30:21;;;;;;;428.77;320.67;;;;;;;23.14;40.67;102890.66;5124470;28;20027;-43
2022/01/19 06:32:50;;;;;;;422.17;318.40;;;;;;;23.10;40.53;102892.25;5124435;28;20027;-46
2022/01/19 06:35:18;;;;;;;416.17;308.13;;;;;;;23.11;40.24;102895.75;5126479;27;20019;-43
2022/01/19 06:37:46;;;;;;;430.20;322.00;;;;;;;23.08;40.22;102893.88;5128568;27;20023;-44
2022/01/19 06:40:16;;;;;;;441.67;324.35;;;;;;;23.06;40.43;102880.75;5128467;27;20500;-43
2022/01/19 06:42:44;;;;;;;407.80;307.77;;;;;;;23.06;40.25;102885.97;5128135;27;20026;-43
2022/01/19 06:45:13;;;;;;;426.98;317.55;;;;;;;23.06;40.47;102885.97;5128220;27;20395;-42
2022/01/19 06:47:42;;;;;;;425.70;322.35;;;;;;;23.09;40.23;102879.06;5127897;27;20030;-43
2022/01/19 06:50:13;;;;;;;421.42;312.52;;;;;;;23.11;40.38;102880.03;5127712;27;20839;-43
2022/01/19 06:52:41;;;;;;;428.10;313.77;;;;;;;23.12;40.54;102879.22;5127847;27;20149;-43
2022/01/19 06:55:10;;;;;;;437.38;324.15;;;;;;;23.15;40.51;102876.75;5127511;27;20095;-43
2022/01/19 06:57:38;;;;;;;430.90;324.05;;;;;;;23.13;40.59;102875.78;5127997;27;20385;-42
2022/01/19 07:00:07;;;;;;;435.35;322.60;;;;;;;23.14;40.49;102875.88;5127884;27;20472;-43
2022/01/19 07:02:36;;;;;;;429.55;315.73;;;;;;;23.19;40.11;102869.09;5127599;27;20416;-42
2022/01/19 07:05:04;;;;;;;430.85;323.00;;;;;;;23.19;40.35;102865.59;5127476;27;20038;-43
2022/01/19 07:07:33;;;;;;;429.55;322.05;;;;;;;23.19;40.47;102871.72;5127536;27;20117;-42
2022/01/19 07:10:01;;;;;;;436.55;319.15;;;;;;;23.19;40.35;102860.38;5128015;27;20035;-43
2022/01/19 07:12:30;;;;;;;429.48;315.88;;;;;;;23.26;39.99;102865.06;5127863;27;20034;-43
2022/01/19 07:14:58;;;;;;;434.88;320.65;;;;;;;23.21;40.23;102858.75;5127470;27;20055;-43
2022/01/19 07:17:27;;;;;;;423.77;316.48;;;;;;;23.21;40.54;102871.84;5127194;27;20107;-42
2022/01/19 07:19:55;;;;;;;425.55;315.42;;;;;;;23.27;39.99;102873.84;5127587;27;20100;-43
2022/01/19 07:22:24;;;;;;;428.65;317.17;;;;;;;23.29;40.06;102883.56;5127132;27;20072;-42
2022/01/19 07:24:52;;;;;;;424.67;315.83;;;;;;;23.25;40.25;102883.34;5127385;27;20468;-42
2022/01/19 07:27:20;;;;;;;427.67;316.60;;;;;;;23.32;39.83;102878.47;5127180;27;20038;-43
2022/01/19 07:29:49;;;;;;;418.55;310.48;;;;;;;23.26;40.14;102872.06;5127293;27;21082;-43
2022/01/19 07:32:17;;;;;;;419.15;311.65;;;;;;;23.21;40.41;102858.75;5127384;27;20023;-46
2022/01/19 07:34:45;;;;;;;410.65;306.02;;;;;;;23.23;40.42;102859.72;5127498;27;20027;-43
2022/01/19 07:37:14;;;;;;;422.33;309.38;;;;;;;23.21;40.25;102857.00;5126892;27;20031;-44
2022/01/19 07:39:43;;;;;;;415.25;301.33;;;;;;;23.21;40.47;102862.25;5126517;27;20384;-44
2022/01/19 07:42:10;;;;;;;407.35;298.85;;;;;;;23.30;40.11;102860.91;5126740;27;20034;-43
2022/01/19 07:44:39;;;;;;;414.75;300.42;;;;;;;23.31;40.22;102854.84;5127012;27;20039;-42
2022/01/19 07:47:08;;;;;;;412.23;305.48;;;;;;;23.14;40.52;102817.34;5126005;27;20038;-42
2022/01/19 07:49:37;;;;;;;411.63;303.17;;;;;;;23.38;40.31;102853.38;5109170;27;20043;-46
2022/01/19 07:52:06;;;;;;;404.77;298.73;;;;;;;23.36;40.48;102866.41;5126636;27;20046;-43
2022/01/19 07:54:34;;;;;;;416.77;300.33;;;;;;;23.38;40.35;102871.72;5125913;27;20023;-42
2022/01/19 07:57:03;;;;;;;405.58;296.23;;;;;;;23.36;40.65;102876.88;5126971;27;20027;-43
2022/01/19 07:59:31;;;;;;;411.08;298.50;;;;;;;23.36;40.59;102876.88;5126676;27;20431;-41
2022/01/19 08:02:00;;;;;;;409.63;301.33;;;;;;;23.36;40.79;102885.66;5126835;27;20042;-41
2022/01/19 08:04:29;;;;;;;408.30;297.17;;;;;;;23.38;40.59;102890.06;5126372;27;20395;-41
2022/01/19 08:06:57;;;;;;;415.85;299.88;;;;;;;23.39;40.66;102884.88;5125627;27;20076;-42
2022/01/19 08:09:26;;;;;;;415.73;301.23;;;;;;;23.40;40.63;102883.16;5125697;27;20027;-42
2022/01/19 08:11:55;;;;;;;408.83;297.30;;;;;;;23.35;40.44;102894.31;5107702;27;20058;-43
2022/01/19 08:14:24;;;;;;;400.35;296.35;;;;;;;23.34;40.96;102884.66;5125883;27;20043;-42
2022/01/19 08:16:56;;;;;;;408.20;294.65;;;;;;;23.40;40.75;102888.41;5125883;27;20050;-42
2022/01/19 08:19:25;;;;;;;401.88;293.90;;;;;;;23.38;40.72;102890.94;5125826;27;20042;-42
2022/01/19 08:21:54;;;;;;;412.80;298.50;;;;;;;23.39;40.47;102895.34;5126278;27;20031;-42
2022/01/19 08:24:22;;;;;;;401.67;290.33;;;;;;;23.35;40.48;102891.72;5125801;27;20118;-42
2022/01/19 08:26:53;;;;;;;399.92;285.65;;;;;;;23.39;40.37;102897.97;5107987;27;20023;-42
2022/01/19 08:29:21;;;;;;;398.02;290.02;;;;;;;23.41;40.41;102893.69;5107912;27;20031;-42
2022/01/19 08:31:50;;;;;;;408.88;297.58;;;;;;;23.29;40.68;102870.47;5125759;27;20033;-42
2022/01/19 08:34:18;;;;;;;408.35;296.77;;;;;;;23.43;40.36;102892.06;5107289;27;20054;-42
2022/01/19 08:36:47;;;;;;;411.67;297.08;;;;;;;23.42;40.30;102889.34;5125892;27;20027;-42
2022/01/19 08:39:15;;;;;;;415.77;294.92;;;;;;;23.37;40.37;102889.16;5107847;27;20019;-43
2022/01/19 08:41:44;;;;;;;413.92;298.10;;;;;;;23.41;40.25;102900.69;5125900;27;20031;-47
2022/01/19 08:44:12;;;;;;;402.50;288.92;;;;;;;23.39;40.34;102897.97;5125508;27;20039;-49
2022/01/19 08:46:41;;;;;;;412.42;294.52;;;;;;;23.37;40.27;102915.34;5125054;27;20031;-49
2022/01/19 08:49:09;;;;;;;403.80;296.88;;;;;;;23.31;40.61;102915.94;5125104;27;20031;-46
2022/01/19 08:51:38;;;;;;;406.42;297.95;;;;;;;23.35;40.53;102928.38;5125039;27;20054;-43
2022/01/19 08:54:06;;;;;;;413.80;298.60;;;;;;;23.38;40.59;102931.97;5107587;27;20476;-48
2022/01/19 08:56:35;;;;;;;407.60;295.35;;;;;;;23.38;40.45;102938.09;5125464;27;20031;-46
2022/01/19 08:59:03;;;;;;;410.90;298.75;;;;;;;23.40;40.35;102936.44;5125611;27;20030;-43
2022/01/19 09:01:32;;;;;;;413.35;303.27;;;;;;;23.37;40.63;102925.81;5125090;27;20115;-43
2022/01/19 09:04:00;;;;;;;418.83;305.25;;;;;;;23.35;40.46;102928.38;5125387;27;20743;-43
2022/01/19 09:06:30;;;;;;;403.75;296.38;;;;;;;23.34;40.71;102933.50;5125187;27;20023;-44
2022/01/19 09:08:59;;;;;;;403.02;295.60;;;;;;;23.31;40.36;102925.53;5125172;27;20030;-48
2022/01/19 09:11:27;;;;;;;400.02;293.65;;;;;;;23.37;40.42;102925.81;5125364;27;20031;-42
2022/01/19 09:13:57;;;;;;;404.48;296.98;;;;;;;23.31;40.54;102920.31;5089721;28;20127;-50
2022/01/19 09:16:26;;;;;;;415.02;301.30;;;;;;;23.29;40.41;102922.84;5104493;28;20020;-46
2022/01/19 09:18:54;;;;;;;412.10;296.42;;;;;;;23.31;40.25;102921.19;5104652;28;20047;-43
2022/01/19 09:21:23;;;;;;;401.38;297.02;;;;;;;23.32;40.48;102927.34;5104362;28;20047;-50
2022/01/19 09:23:52;;;;;;;400.55;291.38;;;;;;;23.31;40.25;102922.94;5104461;28;20084;-47
2022/01/19 09:26:20;;;;;;;411.50;293.08;;;;;;;23.28;40.31;102923.66;5104010;28;20027;-42
2022/01/19 09:28:49;;;;;;;405.80;294.00;;;;;;;23.30;40.17;102926.38;5103084;28;20040;-42
2022/01/19 09:31:19;;;;;;;391.85;285.10;;;;;;;23.34;40.12;102923.94;5104171;28;20055;-42
2022/01/19 09:33:55;;;;;;;399.00;286.08;;;;;;;23.30;40.14;102919.38;5103822;28;20023;-44
2022/01/19 09:36:34;;;;;;;395.17;282.33;;;;;;;23.29;40.18;102924.56;5103694;28;20043;-42
2022/01/19 09:39:05;;;;;;;381.70;275.95;;;;;;;23.30;40.36;102922.00;5104093;28;20343;-43
2022/01/19 09:41:34;;;;;;;389.70;274.05;;;;;;;23.28;40.17;102921.03;5104549;28;20476;-43
2022/01/19 09:44:04;;;;;;;386.23;276.30;;;;;;;23.26;40.37;102927.03;5104138;28;20141;-42
2022/01/19 09:46:32;;;;;;;393.85;280.70;;;;;;;23.29;40.14;102921.94;5103442;28;20082;-43
2022/01/19 09:49:01;;;;;;;390.02;279.88;;;;;;;23.34;40.32;102923.03;5103825;28;20537;-42
2022/01/19 09:51:29;;;;;;;401.58;282.95;;;;;;;23.28;40.13;102922.78;5103088;28;20028;-42
2022/01/19 09:53:58;;;;;;;399.13;288.38;;;;;;;23.28;40.18;102926.28;5102987;28;20024;-42
2022/01/19 09:56:27;;;;;;;399.88;285.55;;;;;;;23.27;40.53;102924.47;5104316;28;20122;-42
2022/01/19 09:58:56;;;;;;;400.92;288.60;;;;;;;23.28;40.62;102920.16;5103344;28;20073;-42
2022/01/19 10:01:26;;;;;;;405.63;288.27;;;;;;;23.29;40.19;102922.84;5103484;28;20126;-42
2022/01/19 10:03:54;;;;;;;407.65;291.27;;;;;;;23.33;40.60;102929.13;5103270;28;20028;-42
2022/01/19 10:06:24;;;;;;;401.63;288.55;;;;;;;23.33;40.26;102924.78;5103645;28;20114;-42
2022/01/19 10:08:55;;;;;;;398.40;290.27;;;;;;;23.27;40.54;102923.59;5103054;28;20296;-42
2022/01/19 10:17:13;;;;;;;407.48;298.05;;;;;;;23.29;40.35;102927.19;5114871;27;20046;-42
2022/01/19 10:19:45;;;;;;;415.10;300.77;;;;;;;23.29;40.29;102929.81;5124070;27;20451;-42
2022/01/19 10:22:25;;;;;;;407.00;303.48;;;;;;;23.26;40.51;102933.16;5124159;28;20019;-42
2022/01/19 10:24:56;;;;;;;411.10;298.10;;;;;;;23.27;40.35;102939.31;5106024;28;20432;-41
2022/01/19 10:27:34;;;;;;;416.83;299.55;;;;;;;23.25;40.47;102931.34;5124096;28;20023;-42
2022/01/19 10:30:03;;;;;;;420.98;302.75;;;;;;;23.20;40.56;102925.00;5105605;28;20110;-42
2022/01/19 10:32:36;;;;;;;428.13;309.50;;;;;;;23.19;40.58;102934.56;5124591;28;20063;-42
2022/01/19 10:35:24;;;;;;;419.80;306.60;;;;;;;23.23;40.92;102937.38;5123835;28;20035;-42
2022/01/19 10:38:13;;;;;;;425.75;310.30;;;;;;;23.24;40.86;102928.69;5123626;28;20028;-42
2022/01/19 10:40:45;;;;;;;412.95;305.08;;;;;;;23.20;40.63;102931.16;5123370;28;20035;-41
2022/01/19 10:43:34;;;;;;;422.88;308.20;;;;;;;23.28;40.69;102926.28;5123498;28;20019;-42
2022/01/19 10:46:24;;;;;;;418.05;308.40;;;;;;;23.29;40.35;102930.69;5123186;28;20031;-42
2022/01/19 10:49:11;;;;;;;421.58;303.98;;;;;;;23.26;40.77;102933.16;5123822;28;20039;-42
2022/01/19 10:51:47;;;;;;;412.45;298.80;;;;;;;23.22;40.74;102941.72;5123301;28;20486;-42
2022/01/19 10:54:20;;;;;;;410.73;296.45;;;;;;;23.18;40.54;102931.88;5096098;28;20079;-43
2022/01/19 10:56:54;;;;;;;407.08;296.48;;;;;;;23.24;40.40;102926.06;5106095;28;20427;-42
2022/01/19 10:59:28;;;;;;;400.27;291.77;;;;;;;23.20;40.67;102932.84;5123893;28;20388;-42
2022/01/19 11:01:59;;;;;;;405.73;293.33;;;;;;;23.23;40.27;102929.50;5105509;28;20034;-43
2022/01/19 11:04:39;;;;;;;401.67;285.13;;;;;;;23.25;40.52;102925.25;5122909;28;20263;-42
2022/01/19 11:07:09;;;;;;;399.63;285.20;;;;;;;23.21;40.58;102924.22;5123779;28;20019;-42
2022/01/19 11:10:22;;;;;;;391.00;283.15;;;;;;;23.20;40.69;102906.66;5124014;28;20019;-43
2022/01/19 11:12:31;;;;;;;385.27;277.45;;;;;;;23.22;40.52;102912.91;5115648;28;20122;-42
2022/01/19 11:15:01;;;;;;;382.80;278.25;;;;;;;23.21;40.38;102906.75;5122307;28;20051;-43
2022/01/19 11:17:29;;;;;;;386.33;278.27;;;;;;;23.22;40.15;102910.28;5123329;28;20039;-42
2022/01/19 11:19:58;;;;;;;379.45;272.83;;;;;;;23.23;40.10;102906.84;5124128;27;20373;-42
2022/01/19 11:22:45;;;;;;;367.42;262.67;;;;;;;23.21;39.99;102901.53;5109368;27;20046;-42
2022/01/19 11:25:27;;;;;;;362.92;258.15;;;;;;;23.20;40.36;102894.50;5127091;27;20027;-42
2022/01/19 11:27:56;;;;;;;365.98;261.60;;;;;;;23.25;40.31;102889.47;5092384;27;20027;-42
2022/01/19 11:30:28;;;;;;;363.15;263.15;;;;;;;23.22;40.00;102884.13;5126960;27;20035;-42
2022/01/19 11:33:23;;;;;;;370.85;254.70;;;;;;;23.26;40.15;102886.03;5126801;27;20031;-42
2022/01/19 11:35:54;;;;;;;349.23;250.32;;;;;;;23.25;39.78;102881.59;5120528;27;20479;-42
2022/01/19 11:38:43;;;;;;;347.67;249.55;;;;;;;23.21;39.93;102872.72;5127263;27;20035;-42
2022/01/19 11:41:31;;;;;;;339.92;239.73;;;;;;;23.30;39.79;102874.00;5127106;27;20035;-42
2022/01/19 11:44:00;;;;;;;334.35;236.50;;;;;;;23.32;40.08;102872.34;5126663;27;20471;-41
2022/01/19 11:46:31;;;;;;;333.60;236.65;;;;;;;23.31;40.06;102862.69;5126369;27;20042;-41
2022/01/19 11:49:02;;;;;;;339.33;242.45;;;;;;;23.31;39.98;102853.09;5127000;27;20025;-42
2022/01/19 11:51:35;;;;;;;321.92;231.82;;;;;;;23.35;40.11;102860.28;5127074;27;20038;-42
2022/01/19 11:54:16;;;;;;;332.27;235.98;;;;;;;23.46;39.96;102850.28;5126368;27;20030;-42
2022/01/19 11:57:04;;;;;;;326.33;235.38;;;;;;;23.42;39.66;102853.59;5126552;27;20037;-42
2022/01/19 11:59:55;;;;;;;330.67;237.35;;;;;;;23.46;40.03;102842.44;5126494;27;20480;-50
2022/01/19 12:02:32;;;;;;;334.73;237.77;;;;;;;23.62;39.56;102845.72;5126674;27;20106;-42
2022/01/19 12:05:01;;;;;;;320.88;228.00;;;;;;;23.61;39.46;102842.19;5126758;27;20035;-42
2022/01/19 12:07:52;;;;;;;329.63;236.43;;;;;;;23.61;39.63;102833.47;5126868;27;20034;-43
2022/01/19 12:10:42;;;;;;;318.70;230.05;;;;;;;23.59;39.32;102836.00;5101667;27;20377;-41
2022/01/19 12:13:28;;;;;;;310.88;227.63;;;;;;;23.62;39.38;102833.50;5125752;27;20074;-42
2022/01/19 12:16:13;;;;;;;311.73;229.95;;;;;;;23.65;39.66;102824.91;5125060;27;20042;-43
2022/01/19 12:19:02;;;;;;;326.83;235.70;;;;;;;23.66;39.63;102817.09;5108810;27;20099;-42
2022/01/19 12:21:31;;;;;;;325.50;229.63;;;;;;;23.65;39.23;102814.44;5117204;27;20450;-42
2022/01/19 12:24:22;;;;;;;312.33;227.32;;;;;;;23.71;39.15;102822.53;5125847;27;20050;-41
2022/01/19 12:26:55;;;;;;;320.45;229.32;;;;;;;23.70;39.16;102812.88;5118218;27;20043;-42
2022/01/19 12:29:43;;;;;;;307.42;228.27;;;;;;;23.70;39.24;102820.75;5125897;27;20027;-43
2022/01/19 12:32:23;;;;;;;327.10;231.70;;;;;;;23.66;39.19;102809.25;5103385;27;20047;-42
2022/01/19 12:34:55;;;;;;;312.00;224.35;;;;;;;23.76;39.26;102815.78;5126071;27;20038;-42
2022/01/19 12:37:41;;;;;;;321.83;227.63;;;;;;;23.73;39.15;102815.66;5126255;27;20031;-42
2022/01/19 12:40:13;;;;;;;319.30;229.43;;;;;;;23.69;39.35;102807.59;5115132;27;20404;-43
2022/01/19 12:42:50;;;;;;;324.75;230.15;;;;;;;23.72;39.32;102803.38;5125732;27;20023;-41
2022/01/19 12:45:25;;;;;;;320.45;231.70;;;;;;;23.86;38.89;102810.94;5125885;27;20031;-42